Time;durP1;ratioP1;P1;durP2;ratioP2;P2;SDS_P1;SDS_P2;PMS_P1;PMS_P2;Temp;Humidity;BMP_temperature;BMP_pressure;BME280_temperature;BME280_humidity;BME280_pressure;Samples;Min_cycle;Max_cycle;Signal;HPM_P1;HPM_P2
2020/06/02 00:03:00;;;;;;;5.5;2.8;;;;;;;14.88;64.16309;959.8881;;;;
2020/06/02 00:05:25;;;;;;;4.5;2.6;;;;;;;14.81;64.61719;959.9619;;;;
2020/06/02 00:10:07;;;;;;;5.7;2.6;;;;;;;14.68;64.30859;959.8823;;;;
2020/06/02 00:12:30;;;;;;;5.3;2.4;;;;;;;14.67;64.84277;959.884;;;;
2020/06/02 00:17:19;;;;;;;5;2.9;;;;;;;14.64;65.0459;959.8315;;;;
2020/06/02 00:19:45;;;;;;;4.8;2.9;;;;;;;14.54;65.43848;959.8025;;;;
2020/06/02 00:22:10;;;;;;;6.2;2.6;;;;;;;14.54;65.85547;959.7981;;;;
2020/06/02 00:24:37;;;;;;;4.6;2.7;;;;;;;14.47;66.12305;959.7722;;;;
2020/06/02 00:27:02;;;;;;;3.7;2.7;;;;;;;14.63;65.64844;959.7676;;;;
2020/06/02 00:29:28;;;;;;;5.4;2.9;;;;;;;14.5;66.39551;959.7518;;;;
2020/06/02 00:31:53;;;;;;;5.3;3.3;;;;;;;14.72;65.62695;959.7146;;;;
2020/06/02 00:34:19;;;;;;;7;3.3;;;;;;;14.92;64.63477;959.7034;;;;
2020/06/02 00:36:44;;;;;;;8.7;3.5;;;;;;;14.92;65.57617;959.7428;;;;
2020/06/02 00:39:10;;;;;;;8.8;3.6;;;;;;;14.68;65.88867;959.6708;;;;
2020/06/02 00:41:35;;;;;;;5;3.2;;;;;;;14.77;65.32129;959.7211;;;;
2020/06/02 00:44:02;;;;;;;7.1;3.2;;;;;;;14.67;65.72461;959.7372;;;;
2020/06/02 00:46:27;;;;;;;7.6;3.1;;;;;;;14.64;66.03418;959.7651;;;;
2020/06/02 00:48:53;;;;;;;7.4;3.5;;;;;;;14.54;66.35645;959.7353;;;;
2020/06/02 00:51:18;;;;;;;7.5;3;;;;;;;14.6;66.29492;959.6756;;;;
2020/06/02 00:53:45;;;;;;;6.1;2.9;;;;;;;14.44;66.47949;959.6753;;;;
2020/06/02 00:56:10;;;;;;;5.9;3;;;;;;;14.39;66.80957;959.6283;;;;
2020/06/02 00:58:35;;;;;;;7.7;3.1;;;;;;;14.37;66.47949;959.6613;;;;
2020/06/02 01:01:21;;;;;;;6.7;3.2;;;;;;;14.28;67.25586;959.5878;;;;
2020/06/02 01:03:47;;;;;;;4.3;3.2;;;;;;;14.18;67.47266;959.6232;;;;
2020/06/02 01:06:13;;;;;;;5.6;3;;;;;;;14.24;67.86426;959.6116;;;;
2020/06/02 01:08:38;;;;;;;5.6;3.2;;;;;;;14.2;68.16016;959.5865;;;;
2020/06/02 01:11:03;;;;;;;7.3;3.2;;;;;;;14.19;68.14746;959.5948;;;;
2020/06/02 01:13:30;;;;;;;7.1;3.3;;;;;;;14.19;68.20508;959.5661;;;;
2020/06/02 01:15:55;;;;;;;4.8;3;;;;;;;14.11;68.45898;959.5508;;;;
2020/06/02 01:18:21;;;;;;;5.7;2.8;;;;;;;14.03;68.36523;959.5126;;;;
2020/06/02 01:25:37;;;;;;;4;2.9;;;;;;;14.03;68.65527;959.4506;;;;
2020/06/02 01:28:03;;;;;;;4.7;2.6;;;;;;;13.92;68.88184;959.4253;;;;
2020/06/02 01:30:28;;;;;;;4.6;2.8;;;;;;;13.93;68.90625;959.4056;;;;
2020/06/02 01:32:55;;;;;;;4.1;2.6;;;;;;;13.84;68.69727;959.4018;;;;
2020/06/02 01:35:20;;;;;;;6.8;3;;;;;;;14.03;68.86426;959.4342;;;;
2020/06/02 01:37:45;;;;;;;4.8;3.1;;;;;;;13.99;68.95117;959.4395;;;;
2020/06/02 01:40:11;;;;;;;6.1;3.3;;;;;;;13.92;69.11426;959.4737;;;;
2020/06/02 01:42:38;;;;;;;4.9;3;;;;;;;13.93;69.0459;959.418;;;;
2020/06/02 01:45:03;;;;;;;7.8;3.6;;;;;;;13.82;69.43457;959.4311;;;;
2020/06/02 01:47:28;;;;;;;5.7;3.5;;;;;;;13.73;69.64063;959.4398;;;;
2020/06/02 01:49:53;;;;;;;4.7;3.2;;;;;;;13.67;69.76953;959.4465;;;;
2020/06/02 01:52:18;;;;;;;6.8;3.1;;;;;;;13.73;69.59277;959.4436;;;;
2020/06/02 01:54:43;;;;;;;7;3.8;;;;;;;13.61;69.7832;959.4431;;;;
2020/06/02 01:57:08;;;;;;;7.7;3.5;;;;;;;13.56;70.13477;959.4402;;;;
2020/06/02 01:59:33;;;;;;;7;3.5;;;;;;;13.55;69.92676;959.473;;;;
2020/06/02 02:02:09;;;;;;;6.6;3.4;;;;;;;13.5;70.07813;959.4595;;;;
2020/06/02 02:06:49;;;;;;;6.7;3.5;;;;;;;13.45;70.08301;959.445;;;;
2020/06/02 02:09:15;;;;;;;4.6;3.1;;;;;;;13.44;70.24414;959.4319;;;;
2020/06/02 02:11:41;;;;;;;6.4;3.7;;;;;;;13.44;69.76758;959.4205;;;;
2020/06/02 02:16:37;;;;;;;5.2;3.3;;;;;;;13.4;69.95801;959.4683;;;;
2020/06/02 02:21:21;;;;;;;5.2;3.1;;;;;;;13.34;70.21582;959.3986;;;;
2020/06/02 02:23:56;;;;;;;5.3;3.3;;;;;;;13.34;70.66602;959.4114;;;;
2020/06/02 02:26:14;;;;;;;5.8;3.3;;;;;;;13.33;70.49121;959.3599;;;;
2020/06/02 02:28:37;;;;;;;6;3.5;;;;;;;13.27;70.7373;959.3822;;;;
2020/06/02 02:31:02;;;;;;;6.3;3.3;;;;;;;13.26;70.83887;959.3594;;;;
2020/06/02 02:33:29;;;;;;;4.6;3.3;;;;;;;13.28;70.82031;959.3433;;;;
2020/06/02 02:35:54;;;;;;;5;3.3;;;;;;;13.25;70.30469;959.343;;;;
2020/06/02 02:38:28;;;;;;;5.1;3;;;;;;;13.23;70.59277;959.3809;;;;
2020/06/02 02:43:24;;;;;;;6.2;3.5;;;;;;;13.17;71.125;959.3362;;;;
2020/06/02 02:46:22;;;;;;;4.3;3.1;;;;;;;13.22;70.54297;959.3563;;;;
2020/06/02 02:48:16;;;;;;;6.2;3.3;;;;;;;13.2;71.11914;959.343;;;;
2020/06/02 02:50:44;;;;;;;4.9;3;;;;;;;13.19;71.04688;959.3566;;;;
2020/06/02 02:54:57;;;;;;;5.7;3.1;;;;;;;13.18;71.13965;959.4229;;;;
2020/06/02 02:55:35;;;;;;;5.6;3.1;;;;;;;13.19;70.94434;959.392;;;;
2020/06/02 03:00:36;;;;;;;4.8;2.8;;;;;;;13.11;70.94238;959.4142;;;;
2020/06/02 03:03:01;;;;;;;6.1;2.5;;;;;;;13.17;69.44629;959.3755;;;;
2020/06/02 03:05:26;;;;;;;5.4;2.6;;;;;;;13.13;70.23926;959.385;;;;
2020/06/02 03:07:51;;;;;;;5;2.7;;;;;;;13.14;69.74316;959.4489;;;;
2020/06/02 03:10:19;;;;;;;4.3;2.6;;;;;;;13.13;69.04688;959.426;;;;
2020/06/02 03:12:44;;;;;;;5.7;2.7;;;;;;;13.12;69.50879;959.4314;;;;
2020/06/02 03:15:09;;;;;;;4.7;2.5;;;;;;;13.14;69.12988;959.4415;;;;
2020/06/02 03:20:07;;;;;;;4.4;2.6;;;;;;;12.99;69.51172;959.3869;;;;
2020/06/02 03:22:25;;;;;;;2.7;2.3;;;;;;;12.98;69.16211;959.3997;;;;
2020/06/02 03:24:52;;;;;;;3.3;2.3;;;;;;;12.99;69.56836;959.3828;;;;
2020/06/02 03:27:18;;;;;;;4.1;2.5;;;;;;;12.96;69.56348;959.3384;;;;
2020/06/02 03:30:45;;;;;;;7.2;2.4;;;;;;;12.96;69.25098;959.3711;;;;
2020/06/02 03:32:09;;;;;;;4.1;2.5;;;;;;;12.92;69.0957;959.4077;;;;
2020/06/02 03:34:34;;;;;;;3.4;2.4;;;;;;;12.94;69.28223;959.4102;;;;
2020/06/02 03:37:01;;;;;;;4.8;2.2;;;;;;;12.96;69.71387;959.3784;;;;
2020/06/02 03:39:26;;;;;;;4;2.2;;;;;;;12.99;69.02441;959.3828;;;;
2020/06/02 03:41:52;;;;;;;4.1;2.3;;;;;;;12.92;69.2207;959.3616;;;;
2020/06/02 03:44:17;;;;;;;4.2;2.6;;;;;;;12.83;70.21289;959.4506;;;;
2020/06/02 03:46:44;;;;;;;4.8;2.5;;;;;;;12.86;70.53027;959.473;;;;
2020/06/02 03:49:09;;;;;;;7.2;2.8;;;;;;;12.89;70.41992;959.4498;;;;
2020/06/02 03:51:34;;;;;;;4.6;2.7;;;;;;;12.9;71.08301;959.4442;;;;
2020/06/02 03:53:59;;;;;;;5.4;2.9;;;;;;;12.86;71.70996;959.5335;;;;
2020/06/02 03:56:24;;;;;;;6.3;3.1;;;;;;;12.99;70.72559;959.5219;;;;
2020/06/02 03:58:49;;;;;;;4.4;2.7;;;;;;;13;70.28906;959.5342;;;;
2020/06/02 04:02:29;;;;;;;5.3;2.7;;;;;;;13.1;70.78906;959.5923;;;;
2020/06/02 04:04:55;;;;;;;4.4;2.9;;;;;;;13.05;71.55566;959.5838;;;;
2020/06/02 04:07:21;;;;;;;6.9;3;;;;;;;13.13;71.40918;959.5978;;;;
2020/06/02 04:09:45;;;;;;;5.5;3.1;;;;;;;13.18;71.25586;959.652;;;;
2020/06/02 04:12:17;;;;;;;4.5;3.1;;;;;;;13.17;71.58789;959.7003;;;;
2020/06/02 04:14:35;;;;;;;6.3;3.3;;;;;;;13.34;69.76465;959.7054;;;;
2020/06/02 04:17:00;;;;;;;7;3.4;;;;;;;13.27;70.63281;959.6809;;;;
2020/06/02 04:19:26;;;;;;;4.7;3.3;;;;;;;13.31;70.77832;959.7307;;;;
2020/06/02 04:21:51;;;;;;;5.3;3.2;;;;;;;13.32;70.43164;959.729;;;;
2020/06/02 04:24:17;;;;;;;5.4;2.9;;;;;;;13.4;69.24023;959.741;;;;
2020/06/02 04:26:43;;;;;;;7.3;3.2;;;;;;;13.42;68.82617;959.742;;;;
2020/06/02 04:29:12;;;;;;;7.9;3.3;;;;;;;13.48;68.41895;959.7481;;;;
2020/06/02 04:31:38;;;;;;;6.6;3.4;;;;;;;13.31;69.875;959.7224;;;;
2020/06/02 04:34:03;;;;;;;5.3;3.1;;;;;;;13.18;70.2002;959.7053;;;;
2020/06/02 04:36:29;;;;;;;5.3;3.3;;;;;;;13.32;69.98047;959.6897;;;;
2020/06/02 04:38:54;;;;;;;7.8;3.4;;;;;;;13.32;70.28125;959.6937;;;;
2020/06/02 04:41:19;;;;;;;7.2;3.2;;;;;;;13.27;70.83008;959.7178;;;;
2020/06/02 04:43:46;;;;;;;8.4;3.6;;;;;;;13.16;71.79688;959.7126;;;;
2020/06/02 04:46:13;;;;;;;6.1;3.4;;;;;;;13.31;70.5;959.6979;;;;
2020/06/02 04:48:38;;;;;;;6.7;3.6;;;;;;;13.51;69.62793;959.7403;;;;
2020/06/02 04:51:03;;;;;;;7;3.6;;;;;;;13.5;70.86621;959.6911;;;;
2020/06/02 04:53:29;;;;;;;9.7;3.7;;;;;;;13.49;70.38965;959.728;;;;
2020/06/02 04:55:54;;;;;;;7.5;3.2;;;;;;;13.48;70.49316;959.7261;;;;
2020/06/02 04:58:20;;;;;;;6.2;3.2;;;;;;;13.37;71.4248;959.7115;;;;
2020/06/02 05:00:54;;;;;;;5.8;2.7;;;;;;;13.52;68.89941;959.7346;;;;
2020/06/02 05:03:22;;;;;;;5.5;2.7;;;;;;;13.47;69.3457;959.7564;;;;
2020/06/02 05:05:47;;;;;;;6.1;2.7;;;;;;;13.58;68.72363;959.7131;;;;
2020/06/02 05:08:12;;;;;;;6.8;2.8;;;;;;;13.63;68.48926;959.7485;;;;
2020/06/02 05:10:47;;;;;;;4.6;2.8;;;;;;;13.7;68.3252;959.7456;;;;
2020/06/02 05:13:13;;;;;;;7.2;2.7;;;;;;;13.8;68.20313;959.7654;;;;
2020/06/02 05:15:42;;;;;;;6.7;3;;;;;;;13.78;68.58301;959.7619;;;;
2020/06/02 05:18:04;;;;;;;5.9;2.8;;;;;;;13.86;67.52832;959.7486;;;;
2020/06/02 05:20:33;;;;;;;6;2.6;;;;;;;14;66.70215;959.7807;;;;
2020/06/02 05:23:24;;;;;;;6;2.9;;;;;;;13.95;67.1582;959.7885;;;;
2020/06/02 05:25:27;;;;;;;6.6;3.5;;;;;;;14.03;66.98535;959.7732;;;;
2020/06/02 05:28:02;;;;;;;5.9;3.5;;;;;;;14.09;67.16895;959.8178;;;;
2020/06/02 05:36:12;;;;;;;5.3;3.6;;;;;;;14.24;67.88867;959.7992;;;;
2020/06/02 05:37:57;;;;;;;5.2;3.2;;;;;;;14.35;66.2002;959.9094;;;;
2020/06/02 05:40:25;;;;;;;5.6;3.3;;;;;;;14.44;66.65332;959.9328;;;;
2020/06/02 05:49:04;;;;;;;7.3;3.4;;;;;;;14.71;65.41602;959.8883;;;;
2020/06/02 05:50:12;;;;;;;6;3.2;;;;;;;14.86;66.43848;959.9019;;;;
2020/06/02 05:55:05;;;;;;;4.9;3.6;;;;;;;15.13;63.61719;959.873;;;;
2020/06/02 05:59:48;;;;;;;6.7;3.4;;;;;;;15.21;62.75684;959.8806;;;;
2020/06/02 06:02:33;;;;;;;5.7;3.4;;;;;;;15.29;63.32813;959.889;;;;
2020/06/02 06:05:40;;;;;;;6.4;3;;;;;;;15.36;62.58203;959.8971;;;;
2020/06/02 06:07:16;;;;;;;3.8;2.3;;;;;;;15.69;60.91699;959.9099;;;;
2020/06/02 06:09:37;;;;;;;4.9;2.3;;;;;;;15.59;61.43848;959.9556;;;;
2020/06/02 06:14:55;;;;;;;3.9;2.3;;;;;;;15.76;62.03223;959.9542;;;;
2020/06/02 06:16:48;;;;;;;4.3;2.3;;;;;;;15.8;62.30664;959.9979;;;;
2020/06/02 06:19:17;;;;;;;5.7;2.5;;;;;;;15.91;62.25098;959.9697;;;;
2020/06/02 06:21:53;;;;;;;7.9;2.5;;;;;;;15.93;62.2666;960.0471;;;;
2020/06/02 06:23:55;;;;;;;6.2;2.4;;;;;;;15.97;62.22656;960.0731;;;;
2020/06/02 06:26:25;;;;;;;6.4;2.6;;;;;;;16.02;61.40527;960.0518;;;;
2020/06/02 06:31:14;;;;;;;6.3;2.6;;;;;;;16.2;60.94043;960.0818;;;;
2020/06/02 06:33:35;;;;;;;4.6;2.3;;;;;;;16.23;61.36523;960.1197;;;;
2020/06/02 06:36:04;;;;;;;6.8;2.7;;;;;;;16.37;61.63086;960.1301;;;;
2020/06/02 06:38:31;;;;;;;7.6;2.7;;;;;;;16.46;60.93164;960.0936;;;;
2020/06/02 06:43:33;;;;;;;5.2;2.1;;;;;;;16.81;58.72656;960.1411;;;;
2020/06/02 06:46:04;;;;;;;5.7;1.9;;;;;;;16.88;58.72363;960.1682;;;;
2020/06/02 06:48:36;;;;;;;7;2.1;;;;;;;16.86;58.27832;960.1605;;;;
2020/06/02 06:50:58;;;;;;;3.7;1.8;;;;;;;16.96;58.62988;960.1356;;;;
2020/06/02 06:53:18;;;;;;;3.2;1.9;;;;;;;16.97;58.77051;960.1981;;;;
2020/06/02 06:55:39;;;;;;;4.5;2.2;;;;;;;16.95;57.84668;960.1922;;;;
2020/06/02 06:58:28;;;;;;;6.3;2;;;;;;;17.15;58.86426;960.1841;;;;
2020/06/02 07:01:46;;;;;;;5.8;2.1;;;;;;;17.43;58.92578;960.22;;;;
2020/06/02 07:04:10;;;;;;;6.7;2.3;;;;;;;17.44;58.07422;960.188;;;;
2020/06/02 07:06:35;;;;;;;4.1;1.8;;;;;;;17.48;57.96289;960.1505;;;;
2020/06/02 07:09:08;;;;;;;7.7;2;;;;;;;17.61;57.76758;960.1958;;;;
2020/06/02 07:11:28;;;;;;;3.6;1.9;;;;;;;17.56;57.35254;960.1716;;;;
2020/06/02 07:13:54;;;;;;;6.1;2.2;;;;;;;17.59;58.03516;960.1548;;;;
2020/06/02 07:23:35;;;;;;;4.4;2.2;;;;;;;17.74;57.75;960.1817;;;;
2020/06/02 07:28:21;;;;;;;4;1.8;;;;;;;17.97;56.18848;960.0966;;;;
2020/06/02 07:30:47;;;;;;;4.2;2;;;;;;;18.11;55.94922;960.1325;;;;
2020/06/02 07:33:12;;;;;;;4.5;1.9;;;;;;;18.14;55.91797;960.1553;;;;
2020/06/02 07:35:37;;;;;;;4;1.9;;;;;;;18.14;56.07031;960.1676;;;;
2020/06/02 07:41:16;;;;;;;5.3;1.9;;;;;;;18.24;55.97852;960.1138;;;;
2020/06/02 07:43:13;;;;;;;3.7;1.6;;;;;;;18.4;54.94434;960.1057;;;;
2020/06/02 07:45:28;;;;;;;3.4;1.4;;;;;;;18.53;54.0918;960.087;;;;
2020/06/02 07:47:45;;;;;;;4.1;1.6;;;;;;;18.57;53.95703;960.135;;;;
2020/06/02 07:50:10;;;;;;;2.7;1.5;;;;;;;18.5;54.63867;960.0914;;;;
2020/06/02 07:53:12;;;;;;;5.5;1.6;;;;;;;18.42;54.59473;960.0773;;;;
2020/06/02 07:55:00;;;;;;;3.5;1.6;;;;;;;18.56;55.50293;960.085;;;;
2020/06/02 07:57:26;;;;;;;4.4;1.6;;;;;;;18.6;54.88574;960.0497;;;;
2020/06/02 07:59:51;;;;;;;2.3;1.5;;;;;;;18.59;54.82617;960.0928;;;;
2020/06/02 08:04:56;;;;;;;2.3;1.3;;;;;;;18.65;54.68066;960.0468;;;;
2020/06/02 08:07:13;;;;;;;4.3;1.8;;;;;;;18.77;54.56836;960.0289;;;;
2020/06/02 08:09:57;;;;;;;2.8;1.4;;;;;;;18.8;53.84375;960.027;;;;
2020/06/02 08:11:58;;;;;;;4.4;1.5;;;;;;;18.85;53.66211;959.9597;;;;
2020/06/02 08:14:22;;;;;;;3.4;1.5;;;;;;;19.09;52.04785;959.9598;;;;
2020/06/02 08:16:54;;;;;;;4;1.4;;;;;;;19.23;51.39746;959.9305;;;;
2020/06/02 08:19:13;;;;;;;4.8;1.4;;;;;;;19.26;50.76563;959.9514;;;;
2020/06/02 08:24:03;;;;;;;3;1.2;;;;;;;19.37;50.37793;959.9202;;;;
2020/06/02 08:26:30;;;;;;;4.1;1.1;;;;;;;19.28;50.69727;959.9174;;;;
2020/06/02 08:28:52;;;;;;;3.4;1.1;;;;;;;19.47;49.37988;959.8848;;;;
2020/06/02 08:31:30;;;;;;;3.3;1.1;;;;;;;19.49;48.48926;959.9009;;;;
2020/06/02 08:36:07;;;;;;;2.6;1.1;;;;;;;19.36;49.12109;959.8345;;;;
2020/06/02 08:38:35;;;;;;;2.2;1.1;;;;;;;19.33;49.99707;959.8168;;;;
2020/06/02 08:43:45;;;;;;;4;1.4;;;;;;;19.62;48.59766;959.8237;;;;
2020/06/02 08:46:07;;;;;;;5.7;1.3;;;;;;;19.71;46.32715;959.8118;;;;
2020/06/02 08:49:04;;;;;;;2.7;1.1;;;;;;;19.7;46.33887;959.7971;;;;
2020/06/02 08:50:42;;;;;;;3;1.1;;;;;;;19.86;47.27246;959.8042;;;;
2020/06/02 08:53:25;;;;;;;4.1;1.2;;;;;;;19.84;47.16406;959.765;;;;
2020/06/02 08:55:31;;;;;;;2.9;1.1;;;;;;;19.92;47.59668;959.7877;;;;
2020/06/02 08:57:57;;;;;;;5.6;1.4;;;;;;;20.15;46.32715;959.7619;;;;
2020/06/02 09:02:55;;;;;;;2.9;1.1;;;;;;;20.3;45.6123;959.78;;;;
2020/06/02 09:05:30;;;;;;;3.8;1.2;;;;;;;20.26;44.63184;959.7518;;;;
2020/06/02 09:07:50;;;;;;;4.7;1.2;;;;;;;20.29;46.33008;959.7006;;;;
2020/06/02 09:12:53;;;;;;;3.8;1.1;;;;;;;20.46;45.95898;959.6967;;;;
2020/06/02 09:15:17;;;;;;;4.9;1.4;;;;;;;20.45;44.85156;959.6231;;;;
2020/06/02 09:17:30;;;;;;;4.5;1.3;;;;;;;20.47;45.1123;959.593;;;;
2020/06/02 09:19:55;;;;;;;2.9;1.2;;;;;;;20.58;45.0293;959.5761;;;;
2020/06/02 09:22:21;;;;;;;5.2;1.1;;;;;;;20.61;43.58496;959.5582;;;;
2020/06/02 09:24:46;;;;;;;2.2;1;;;;;;;20.61;43.70215;959.483;;;;
2020/06/02 09:27:11;;;;;;;5.2;1;;;;;;;20.36;44.53613;959.5179;;;;
2020/06/02 09:29:48;;;;;;;4.6;1.2;;;;;;;20.49;42.74805;959.498;;;;
2020/06/02 09:32:12;;;;;;;4.5;1.1;;;;;;;20.37;43.96094;959.5006;;;;
2020/06/02 09:34:31;;;;;;;4.1;1.5;;;;;;;20.56;44.52051;959.4483;;;;
2020/06/02 09:36:54;;;;;;;4.4;1;;;;;;;20.8;44.02637;959.4647;;;;
2020/06/02 09:39:17;;;;;;;3.2;1;;;;;;;20.77;43.42285;959.435;;;;
2020/06/02 09:41:42;;;;;;;2.9;1;;;;;;;20.7;43.01563;959.4827;;;;
2020/06/02 09:44:07;;;;;;;4.4;1.1;;;;;;;20.73;44.77344;959.404;;;;
2020/06/02 09:46:32;;;;;;;5.3;1.2;;;;;;;20.83;43.3457;959.4717;;;;
2020/06/02 09:48:57;;;;;;;4.2;1;;;;;;;20.89;42.66895;959.4456;;;;
2020/06/02 09:53:48;;;;;;;3.2;1;;;;;;;21.03;42.23438;959.3271;;;;
2020/06/02 09:56:24;;;;;;;4.9;1.2;;;;;;;21.03;42.12891;959.4217;;;;
2020/06/02 09:58:41;;;;;;;3.8;1;;;;;;;21.02;42.08008;959.4012;;;;
2020/06/02 10:01:05;;;;;;;5;1.1;;;;;;;21.32;41.9668;959.3828;;;;
2020/06/02 10:03:32;;;;;;;2.8;0.9;;;;;;;21.4;41.96289;959.391;;;;
2020/06/02 10:05:57;;;;;;;3.4;1.1;;;;;;;21.37;41.45313;959.3353;;;;
2020/06/02 10:08:22;;;;;;;4.1;1.1;;;;;;;21.48;40.94434;959.3786;;;;
2020/06/02 10:10:53;;;;;;;3.5;1.2;;;;;;;21.47;40.39941;959.3464;;;;
2020/06/02 10:13:14;;;;;;;3.5;0.9;;;;;;;21.3;40.86816;959.3184;;;;
2020/06/02 10:17:10;;;;;;;2.6;0.9;;;;;;;20.96;41.19043;959.2846;;;;
2020/06/02 10:18:09;;;;;;;3;1;;;;;;;21.05;41.85938;959.2952;;;;
2020/06/02 10:20:54;;;;;;;2.5;1;;;;;;;21.2;42.2041;959.2651;;;;
2020/06/02 10:23:07;;;;;;;6.1;1.2;;;;;;;21.4;40.81836;959.3033;;;;
2020/06/02 10:25:20;;;;;;;3.3;1.1;;;;;;;21.13;40.30957;959.2389;;;;
2020/06/02 10:27:46;;;;;;;5.5;1.1;;;;;;;20.91;41.4209;959.1582;;;;
2020/06/02 10:30:11;;;;;;;3.7;1.1;;;;;;;21.33;41.07129;959.157;;;;
2020/06/02 10:32:50;;;;;;;1.5;0.9;;;;;;;21.57;40.9873;959.144;;;;
2020/06/02 10:37:26;;;;;;;3.1;0.9;;;;;;;21.76;40.46191;959.0978;;;;
2020/06/02 10:39:52;;;;;;;2.6;1;;;;;;;21.96;40.1377;959.1142;;;;
2020/06/02 10:42:20;;;;;;;3.8;0.9;;;;;;;22.26;39.25488;959.0649;;;;
2020/06/02 10:47:33;;;;;;;5.7;1;;;;;;;22.12;38.8291;959.0218;;;;
2020/06/02 10:49:44;;;;;;;6.4;1.4;;;;;;;22.07;39.47363;959.0366;;;;
2020/06/02 10:51:57;;;;;;;4.6;1.1;;;;;;;22.09;39.13379;959.0086;;;;
2020/06/02 10:54:25;;;;;;;4.9;1.1;;;;;;;22.09;39.52344;958.9761;;;;
2020/06/02 10:56:48;;;;;;;2.3;1.1;;;;;;;22.26;38.94727;959.0118;;;;
2020/06/02 11:01:39;;;;;;;4.5;1.2;;;;;;;22.19;38.84668;958.9963;;;;
2020/06/02 11:04:03;;;;;;;3.6;1.1;;;;;;;22.13;38.90039;958.9849;;;;
2020/06/02 11:06:29;;;;;;;3.8;1;;;;;;;22.08;38.87305;958.949;;;;
2020/06/02 11:08:55;;;;;;;3.3;1;;;;;;;22;39.52734;958.9013;;;;
2020/06/02 11:11:20;;;;;;;3.2;1;;;;;;;22.05;38.95215;958.8677;;;;
2020/06/02 11:13:45;;;;;;;2.9;1.1;;;;;;;22.19;38.20801;958.9438;;;;
2020/06/02 11:16:15;;;;;;;4.8;0.9;;;;;;;22.14;38.12109;958.9384;;;;
2020/06/02 11:21:08;;;;;;;3.3;0.9;;;;;;;22.13;37.9668;958.9127;;;;
2020/06/02 11:25:51;;;;;;;4.1;0.9;;;;;;;22.09;37.43164;958.7123;;;;
2020/06/02 11:33:11;;;;;;;2.7;0.9;;;;;;;22.61;38.06738;958.6319;;;;
2020/06/02 11:35:39;;;;;;;3;0.9;;;;;;;22.64;37.62109;958.6359;;;;
2020/06/02 11:37:57;;;;;;;6.7;0.9;;;;;;;22.64;36.89844;958.6036;;;;
2020/06/02 11:40:37;;;;;;;3.2;0.9;;;;;;;22.61;36.13867;958.5861;;;;
2020/06/02 11:42:47;;;;;;;3.7;0.9;;;;;;;22.8;36.53418;958.6198;;;;
2020/06/02 11:45:16;;;;;;;4.5;1;;;;;;;22.86;35.66211;958.6036;;;;
2020/06/02 11:47:42;;;;;;;3.8;1.1;;;;;;;23.5;36.38965;958.6133;;;;
2020/06/02 11:50:07;;;;;;;3.3;0.9;;;;;;;23.16;36.87109;958.5787;;;;
2020/06/02 11:53:12;;;;;;;3.7;1;;;;;;;23.55;36.78418;958.5553;;;;
2020/06/02 11:57:30;;;;;;;3.3;1.1;;;;;;;23.68;35.57324;958.4933;;;;
2020/06/02 11:59:44;;;;;;;5.2;1.2;;;;;;;23.53;35.76367;958.4451;;;;
2020/06/02 12:02:23;;;;;;;2.9;1;;;;;;;23.52;34.74316;958.4458;;;;
2020/06/02 12:04:38;;;;;;;2.4;0.9;;;;;;;23.45;34.57227;958.4468;;;;
2020/06/02 12:09:31;;;;;;;2.9;0.9;;;;;;;23.48;35.77148;958.4167;;;;
2020/06/02 12:14:25;;;;;;;3.2;0.9;;;;;;;23.14;34.71387;958.3508;;;;
2020/06/02 12:16:48;;;;;;;3.2;1;;;;;;;23.22;34.58984;958.2833;;;;
2020/06/02 12:19:24;;;;;;;5.4;1.1;;;;;;;23.32;34.36035;958.2544;;;;
2020/06/02 12:33:47;;;;;;;3.8;1.1;;;;;;;24.14;32.99902;958.1127;;;;
2020/06/02 12:43:27;;;;;;;2.2;0.8;;;;;;;24.33;31.96875;958.0072;;;;
2020/06/02 12:45:49;;;;;;;6.6;1;;;;;;;24.57;31.97266;958.0095;;;;
2020/06/02 12:50:44;;;;;;;3.5;0.8;;;;;;;24.83;32.90723;957.8967;;;;
2020/06/02 13:04:33;;;;;;;3.7;0.8;;;;;;;24.55;31.16406;957.825;;;;
2020/06/02 13:10:10;;;;;;;2.8;0.8;;;;;;;23.67;32.05176;957.7795;;;;
2020/06/02 13:14:18;;;;;;;3.4;0.8;;;;;;;24.05;32.2334;957.5864;;;;
2020/06/02 13:19:09;;;;;;;1.9;0.8;;;;;;;24.76;30.91699;957.6091;;;;
2020/06/02 13:21:25;;;;;;;2.5;0.7;;;;;;;24.7;30.36621;957.5591;;;;
2020/06/02 13:25:34;;;;;;;6.6;0.8;;;;;;;24.45;30.90723;957.5391;;;;
2020/06/02 13:26:16;;;;;;;2.1;0.8;;;;;;;24.36;31.15039;957.4947;;;;
2020/06/02 13:28:48;;;;;;;2.3;0.9;;;;;;;24.63;30.33789;957.4738;;;;
2020/06/02 13:31:21;;;;;;;4.5;0.8;;;;;;;24.45;31.57227;957.4014;;;;
2020/06/02 13:33:50;;;;;;;6.2;0.8;;;;;;;24.58;31.20215;957.3697;;;;
2020/06/02 13:36:12;;;;;;;4.8;0.8;;;;;;;24.45;31.73926;957.3655;;;;
2020/06/02 13:38:40;;;;;;;2.4;0.8;;;;;;;24.61;32.30859;957.3717;;;;
2020/06/02 13:43:24;;;;;;;3.1;0.7;;;;;;;24.57;31.42676;957.1735;;;;
2020/06/02 13:45:37;;;;;;;2.3;0.8;;;;;;;24.64;31.57422;957.204;;;;
2020/06/02 13:48:05;;;;;;;6.3;0.9;;;;;;;24.83;31.61133;957.1887;;;;
2020/06/02 13:50:30;;;;;;;3.6;0.9;;;;;;;24.87;31.20996;957.1553;;;;
2020/06/02 13:55:21;;;;;;;2.8;1;;;;;;;24.81;30.37402;957.1454;;;;
2020/06/02 13:58:58;;;;;;;3.7;0.7;;;;;;;24.86;29.91406;957.1001;;;;
2020/06/02 14:02:50;;;;;;;2.4;0.7;;;;;;;25.28;29.95313;957.021;;;;
2020/06/02 14:08:28;;;;;;;3;0.9;;;;;;;25.26;30.4873;956.9984;;;;
2020/06/02 14:10:37;;;;;;;3.2;0.9;;;;;;;25.31;30.19336;956.9479;;;;
2020/06/02 14:14:42;;;;;;;3.9;0.8;;;;;;;24.9;31.03418;956.9281;;;;
2020/06/02 14:19:48;;;;;;;2.3;0.7;;;;;;;25.12;30.50195;956.8427;;;;
2020/06/02 14:22:09;;;;;;;2.2;0.7;;;;;;;25.31;30.62207;956.9002;;;;
2020/06/02 14:29:45;;;;;;;3.8;0.7;;;;;;;25.36;29.50684;956.8103;;;;
2020/06/02 14:34:06;;;;;;;2.7;0.7;;;;;;;25.52;29.38672;956.7775;;;;
2020/06/02 14:39:08;;;;;;;2.2;1;;;;;;;25.08;31.45117;956.682;;;;
2020/06/02 14:42:19;;;;;;;4.4;0.8;;;;;;;25.03;30.41211;956.6041;;;;
2020/06/02 14:48:54;;;;;;;3.8;0.9;;;;;;;25.23;30.2832;956.595;;;;
2020/06/02 14:51:18;;;;;;;5.8;2.3;;;;;;;25.4;29.67578;956.6144;;;;
2020/06/02 14:53:24;;;;;;;3.2;0.9;;;;;;;24.91;29.8457;956.525;;;;
2020/06/02 15:05:31;;;;;;;3.8;1.2;;;;;;;24.77;30.0498;956.4392;;;;
2020/06/02 15:08:18;;;;;;;3.7;0.9;;;;;;;24.51;31.00684;956.4056;;;;
2020/06/02 15:12:43;;;;;;;4.7;1.3;;;;;;;24.74;31.30762;956.2878;;;;
2020/06/02 15:15:33;;;;;;;1.9;0.8;;;;;;;25;30.63672;956.3033;;;;
2020/06/02 15:17:40;;;;;;;3.1;0.9;;;;;;;25.14;30.5625;956.3329;;;;
2020/06/02 15:20:02;;;;;;;2.5;0.8;;;;;;;24.87;30.3418;956.2383;;;;
2020/06/02 15:22:30;;;;;;;2.6;1;;;;;;;24.65;29.70898;956.2417;;;;
2020/06/02 15:24:51;;;;;;;4;0.9;;;;;;;24.69;30.16309;956.2266;;;;
2020/06/02 15:32:10;;;;;;;3;0.9;;;;;;;24.59;29.3252;956.0916;;;;
2020/06/02 15:34:42;;;;;;;2;0.7;;;;;;;24.93;29.32324;956.0756;;;;
2020/06/02 15:36:56;;;;;;;4.8;0.8;;;;;;;24.53;29.34473;955.9998;;;;
2020/06/02 15:40:15;;;;;;;3;0.8;;;;;;;24.15;29.2959;956.0079;;;;
2020/06/02 15:44:19;;;;;;;2.3;0.8;;;;;;;24.28;31.0625;955.9347;;;;
2020/06/02 15:46:37;;;;;;;1.4;0.7;;;;;;;24.38;29.37012;955.8933;;;;
2020/06/02 15:49:02;;;;;;;1.4;0.7;;;;;;;24.32;29.97266;955.8633;;;;
2020/06/02 15:51:34;;;;;;;1.6;0.8;;;;;;;23.97;30.56641;955.8315;;;;
2020/06/02 15:53:54;;;;;;;1.1;0.8;;;;;;;24.14;29.86523;955.8283;;;;
2020/06/02 15:56:15;;;;;;;3.7;0.7;;;;;;;24.1;29.69727;955.803;;;;
2020/06/02 15:58:41;;;;;;;3;0.9;;;;;;;24.21;30.22656;955.8086;;;;
2020/06/02 16:06:09;;;;;;;3;0.8;;;;;;;24.02;29.90527;955.7023;;;;
2020/06/02 16:08:23;;;;;;;3.2;0.9;;;;;;;24.09;30.28906;955.7195;;;;
2020/06/02 16:13:26;;;;;;;1.6;0.7;;;;;;;23.68;31.6377;955.6219;;;;
2020/06/02 16:23:00;;;;;;;3.2;1.2;;;;;;;23.52;31.82715;955.5309;;;;
2020/06/02 16:28:26;;;;;;;2.5;1.4;;;;;;;23.46;32.35645;955.465;;;;
2020/06/02 16:32:44;;;;;;;2.6;0.9;;;;;;;23.56;31.30859;955.4055;;;;
2020/06/02 16:35:57;;;;;;;5;1.1;;;;;;;23.6;31.39453;955.4172;;;;
2020/06/02 16:44:51;;;;;;;2;1;;;;;;;23.43;31.56055;955.3896;;;;
2020/06/02 16:47:17;;;;;;;2.3;0.8;;;;;;;23.27;31.52539;955.3599;;;;
2020/06/02 16:49:31;;;;;;;3.5;0.7;;;;;;;23.29;31.25293;955.3328;;;;
2020/06/02 16:59:16;;;;;;;3.6;0.8;;;;;;;23.46;30.82715;955.3242;;;;
2020/06/02 17:04:07;;;;;;;1.2;0.6;;;;;;;23.48;30.72266;955.223;;;;
2020/06/02 17:06:39;;;;;;;1.5;0.8;;;;;;;23.32;30.99609;955.1916;;;;
2020/06/02 17:16:55;;;;;;;5;1.2;;;;;;;23.08;32.00879;955.1049;;;;
2020/06/02 17:30:41;;;;;;;3.5;0.9;;;;;;;23.06;31.47461;955.0733;;;;
2020/06/02 17:37:58;;;;;;;2.3;0.7;;;;;;;23.09;31.2627;954.986;;;;
2020/06/02 17:42:59;;;;;;;2.9;1;;;;;;;23.05;31.11816;954.9863;;;;
2020/06/02 17:45:14;;;;;;;3.2;0.7;;;;;;;23.07;30.74121;954.9434;;;;
2020/06/02 17:47:49;;;;;;;2.8;1;;;;;;;23.02;30.67871;954.926;;;;
2020/06/02 17:50:54;;;;;;;2.1;0.9;;;;;;;22.92;30.99023;954.9222;;;;
2020/06/02 17:52:38;;;;;;;2.7;1.2;;;;;;;22.9;31.3916;954.8697;;;;
2020/06/02 17:57:18;;;;;;;1.8;0.8;;;;;;;22.86;31.51953;954.877;;;;
2020/06/02 18:02:06;;;;;;;1.8;0.9;;;;;;;22.83;30.89063;954.8532;;;;
2020/06/02 18:04:32;;;;;;;1.5;0.9;;;;;;;22.76;31.08594;954.9005;;;;
2020/06/02 18:09:26;;;;;;;3.3;1.1;;;;;;;22.51;32.07422;954.7964;;;;
2020/06/02 18:16:42;;;;;;;2.8;0.7;;;;;;;22.49;30.85449;954.7961;;;;
2020/06/02 18:19:01;;;;;;;1.6;0.7;;;;;;;22.52;31.82617;954.7626;;;;
2020/06/02 18:27:20;;;;;;;3.5;1.2;;;;;;;22.39;31.37988;954.7011;;;;
2020/06/02 18:31:45;;;;;;;4.8;1.3;;;;;;;22.05;33.86035;954.7182;;;;
2020/06/02 18:35:03;;;;;;;4.3;1.2;;;;;;;22.07;33.41406;954.7256;;;;
2020/06/02 18:37:00;;;;;;;2.5;0.9;;;;;;;21.83;35.53223;954.7604;;;;
2020/06/02 18:40:24;;;;;;;2.4;1.2;;;;;;;21.95;33.36816;954.6948;;;;
2020/06/02 18:41:36;;;;;;;1.5;1.1;;;;;;;21.85;34.1875;954.709;;;;
2020/06/02 18:49:23;;;;;;;5;1.7;;;;;;;21.62;34.24023;954.7125;;;;
2020/06/02 18:56:25;;;;;;;3.5;1;;;;;;;21.56;37.54004;954.6895;;;;
2020/06/02 18:58:48;;;;;;;2.4;1;;;;;;;21.4;35.94629;954.7028;;;;
2020/06/02 19:03:30;;;;;;;2.5;1.2;;;;;;;20.98;39.38867;954.6881;;;;
2020/06/02 19:08:28;;;;;;;2.6;1.7;;;;;;;20.83;39.62305;954.6633;;;;